sensor_id;sensor_type;location;lat;lon;timestamp;P1;durP1;ratioP1;P2;durP2;ratioP2
5871;SDS011;2962;51.312;7.378;2023-03-01T00:01:13;5.43;;;4.72;;
5871;SDS011;2962;51.312;7.378;2023-03-01T00:03:40;6.07;;;5.40;;
5871;SDS011;2962;51.312;7.378;2023-03-01T00:06:06;5.67;;;5.10;;
5871;SDS011;2962;51.312;7.378;2023-03-01T00:08:32;5.33;;;4.83;;
5871;SDS011;2962;51.312;7.378;2023-03-01T00:11:31;6.07;;;5.40;;
5871;SDS011;2962;51.312;7.378;2023-03-01T00:13:52;7.43;;;5.97;;
5871;SDS011;2962;51.312;7.378;2023-03-01T00:18:54;9.20;;;6.30;;
5871;SDS011;2962;51.312;7.378;2023-03-01T00:21:20;7.28;;;6.18;;
5871;SDS011;2962;51.312;7.378;2023-03-01T00:23:47;8.13;;;5.90;;
5871;SDS011;2962;51.312;7.378;2023-03-01T00:26:13;7.85;;;5.70;;
5871;SDS011;2962;51.312;7.378;2023-03-01T00:28:39;8.20;;;5.90;;
5871;SDS011;2962;51.312;7.378;2023-03-01T00:31:06;6.53;;;6.00;;
5871;SDS011;2962;51.312;7.378;2023-03-01T00:33:33;6.80;;;5.75;;
5871;SDS011;2962;51.312;7.378;2023-03-01T00:35:59;6.57;;;5.90;;
5871;SDS011;2962;51.312;7.378;2023-03-01T00:38:25;6.10;;;5.50;;
5871;SDS011;2962;51.312;7.378;2023-03-01T00:40:50;7.97;;;6.60;;
5871;SDS011;2962;51.312;7.378;2023-03-01T00:43:16;6.43;;;5.83;;
5871;SDS011;2962;51.312;7.378;2023-03-01T00:45:41;7.87;;;6.13;;
5871;SDS011;2962;51.312;7.378;2023-03-01T00:48:06;8.27;;;5.90;;
5871;SDS011;2962;51.312;7.378;2023-03-01T00:50:32;7.47;;;6.77;;
5871;SDS011;2962;51.312;7.378;2023-03-01T00:52:57;7.20;;;6.40;;
5871;SDS011;2962;51.312;7.378;2023-03-01T00:55:23;6.20;;;5.60;;
5871;SDS011;2962;51.312;7.378;2023-03-01T00:57:48;7.40;;;6.20;;
5871;SDS011;2962;51.312;7.378;2023-03-01T01:00:14;11.00;;;6.47;;
5871;SDS011;2962;51.312;7.378;2023-03-01T01:02:39;7.77;;;5.87;;
5871;SDS011;2962;51.312;7.378;2023-03-01T01:05:05;6.97;;;5.97;;
5871;SDS011;2962;51.312;7.378;2023-03-01T01:07:31;6.33;;;5.73;;
5871;SDS011;2962;51.312;7.378;2023-03-01T01:09:56;7.53;;;5.97;;
5871;SDS011;2962;51.312;7.378;2023-03-01T01:12:21;7.70;;;6.40;;
5871;SDS011;2962;51.312;7.378;2023-03-01T01:14:47;9.73;;;6.90;;
5871;SDS011;2962;51.312;7.378;2023-03-01T01:17:12;7.80;;;6.90;;
5871;SDS011;2962;51.312;7.378;2023-03-01T01:19:37;11.43;;;6.70;;
5871;SDS011;2962;51.312;7.378;2023-03-01T01:22:03;10.10;;;6.70;;
5871;SDS011;2962;51.312;7.378;2023-03-01T01:24:28;8.80;;;6.83;;
5871;SDS011;2962;51.312;7.378;2023-03-01T01:26:53;7.20;;;6.50;;
5871;SDS011;2962;51.312;7.378;2023-03-01T01:29:19;6.87;;;6.00;;
5871;SDS011;2962;51.312;7.378;2023-03-01T01:31:44;7.50;;;5.70;;
5871;SDS011;2962;51.312;7.378;2023-03-01T01:34:13;11.10;;;6.17;;
5871;SDS011;2962;51.312;7.378;2023-03-01T01:36:40;7.43;;;6.60;;
5871;SDS011;2962;51.312;7.378;2023-03-01T01:39:05;7.07;;;6.30;;
5871;SDS011;2962;51.312;7.378;2023-03-01T01:41:31;9.70;;;6.57;;
5871;SDS011;2962;51.312;7.378;2023-03-01T01:47:00;9.98;;;6.93;;
5871;SDS011;2962;51.312;7.378;2023-03-01T01:49:42;9.35;;;6.63;;
5871;SDS011;2962;51.312;7.378;2023-03-01T01:52:19;7.15;;;6.35;;
5871;SDS011;2962;51.312;7.378;2023-03-01T01:57:33;7.22;;;6.53;;
5871;SDS011;2962;51.312;7.378;2023-03-01T02:00:08;11.73;;;6.75;;
5871;SDS011;2962;51.312;7.378;2023-03-01T02:02:37;7.05;;;6.45;;
5871;SDS011;2962;51.312;7.378;2023-03-01T02:05:09;8.93;;;6.50;;
5871;SDS011;2962;51.312;7.378;2023-03-01T02:07:40;7.05;;;6.35;;
5871;SDS011;2962;51.312;7.378;2023-03-01T02:10:07;8.20;;;6.18;;
5871;SDS011;2962;51.312;7.378;2023-03-01T02:12:33;7.07;;;6.25;;
5871;SDS011;2962;51.312;7.378;2023-03-01T02:14:59;8.90;;;6.53;;
5871;SDS011;2962;51.312;7.378;2023-03-01T02:17:24;7.97;;;6.67;;
5871;SDS011;2962;51.312;7.378;2023-03-01T02:20:25;6.77;;;5.90;;
5871;SDS011;2962;51.312;7.378;2023-03-01T02:22:47;9.18;;;6.70;;
5871;SDS011;2962;51.312;7.378;2023-03-01T02:27:54;7.85;;;6.43;;
5871;SDS011;2962;51.312;7.378;2023-03-01T02:30:40;7.85;;;6.85;;
5871;SDS011;2962;51.312;7.378;2023-03-01T02:33:27;7.10;;;5.93;;
5871;SDS011;2962;51.312;7.378;2023-03-01T02:35:54;7.10;;;6.35;;
5871;SDS011;2962;51.312;7.378;2023-03-01T02:38:21;10.75;;;7.22;;
5871;SDS011;2962;51.312;7.378;2023-03-01T02:40:48;7.20;;;6.50;;
5871;SDS011;2962;51.312;7.378;2023-03-01T02:43:16;7.38;;;6.68;;
5871;SDS011;2962;51.312;7.378;2023-03-01T02:45:52;8.60;;;7.00;;
5871;SDS011;2962;51.312;7.378;2023-03-01T02:48:18;10.93;;;7.20;;
5871;SDS011;2962;51.312;7.378;2023-03-01T02:53:15;9.23;;;7.53;;
5871;SDS011;2962;51.312;7.378;2023-03-01T02:55:46;9.88;;;6.80;;
5871;SDS011;2962;51.312;7.378;2023-03-01T02:58:11;8.10;;;7.30;;
5871;SDS011;2962;51.312;7.378;2023-03-01T03:00:37;11.80;;;8.00;;
5871;SDS011;2962;51.312;7.378;2023-03-01T03:03:15;10.25;;;7.55;;
5871;SDS011;2962;51.312;7.378;2023-03-01T03:05:45;9.45;;;7.88;;
5871;SDS011;2962;51.312;7.378;2023-03-01T03:08:10;12.53;;;7.53;;
5871;SDS011;2962;51.312;7.378;2023-03-01T03:10:37;8.95;;;7.20;;
5871;SDS011;2962;51.312;7.378;2023-03-01T03:13:12;7.43;;;6.70;;
5871;SDS011;2962;51.312;7.378;2023-03-01T03:15:39;8.07;;;7.22;;
5871;SDS011;2962;51.312;7.378;2023-03-01T03:18:10;9.90;;;7.88;;
5871;SDS011;2962;51.312;7.378;2023-03-01T03:20:38;15.68;;;7.78;;
5871;SDS011;2962;51.312;7.378;2023-03-01T03:23:05;9.65;;;8.73;;
5871;SDS011;2962;51.312;7.378;2023-03-01T03:25:30;7.63;;;6.77;;
5871;SDS011;2962;51.312;7.378;2023-03-01T03:27:56;11.10;;;7.60;;
5871;SDS011;2962;51.312;7.378;2023-03-01T03:30:29;8.43;;;7.30;;
5871;SDS011;2962;51.312;7.378;2023-03-01T03:32:56;9.45;;;7.68;;
5871;SDS011;2962;51.312;7.378;2023-03-01T03:37:54;10.25;;;7.18;;
5871;SDS011;2962;51.312;7.378;2023-03-01T03:40:26;9.55;;;7.50;;
5871;SDS011;2962;51.312;7.378;2023-03-01T03:42:54;9.38;;;7.53;;
5871;SDS011;2962;51.312;7.378;2023-03-01T03:45:19;16.43;;;6.93;;
5871;SDS011;2962;51.312;7.378;2023-03-01T03:47:45;9.03;;;7.33;;
5871;SDS011;2962;51.312;7.378;2023-03-01T03:50:11;7.77;;;6.97;;
5871;SDS011;2962;51.312;7.378;2023-03-01T03:52:38;9.45;;;7.90;;
5871;SDS011;2962;51.312;7.378;2023-03-01T03:55:04;11.90;;;7.83;;
5871;SDS011;2962;51.312;7.378;2023-03-01T03:57:36;11.32;;;7.20;;
5871;SDS011;2962;51.312;7.378;2023-03-01T04:00:02;8.95;;;7.20;;
5871;SDS011;2962;51.312;7.378;2023-03-01T04:02:30;13.18;;;7.45;;
5871;SDS011;2962;51.312;7.378;2023-03-01T04:04:55;9.60;;;7.27;;
5871;SDS011;2962;51.312;7.378;2023-03-01T04:07:20;10.83;;;7.70;;
5871;SDS011;2962;51.312;7.378;2023-03-01T04:09:46;8.30;;;7.17;;
5871;SDS011;2962;51.312;7.378;2023-03-01T04:12:11;10.87;;;7.93;;
5871;SDS011;2962;51.312;7.378;2023-03-01T04:14:36;11.33;;;8.43;;
5871;SDS011;2962;51.312;7.378;2023-03-01T04:17:02;12.73;;;8.33;;
5871;SDS011;2962;51.312;7.378;2023-03-01T04:19:30;8.32;;;7.18;;
5871;SDS011;2962;51.312;7.378;2023-03-01T04:22:01;8.90;;;7.45;;
5871;SDS011;2962;51.312;7.378;2023-03-01T04:24:32;10.32;;;8.00;;
5871;SDS011;2962;51.312;7.378;2023-03-01T04:26:58;14.50;;;8.50;;
5871;SDS011;2962;51.312;7.378;2023-03-01T04:29:23;12.97;;;8.50;;
5871;SDS011;2962;51.312;7.378;2023-03-01T04:31:48;14.63;;;8.07;;
5871;SDS011;2962;51.312;7.378;2023-03-01T04:34:14;11.13;;;7.90;;
5871;SDS011;2962;51.312;7.378;2023-03-01T04:36:39;13.60;;;7.93;;
5871;SDS011;2962;51.312;7.378;2023-03-01T04:39:04;13.80;;;9.10;;
5871;SDS011;2962;51.312;7.378;2023-03-01T04:41:37;13.40;;;8.65;;
5871;SDS011;2962;51.312;7.378;2023-03-01T04:44:04;8.85;;;7.63;;
5871;SDS011;2962;51.312;7.378;2023-03-01T04:46:30;12.88;;;9.07;;
5871;SDS011;2962;51.312;7.378;2023-03-01T04:48:55;8.27;;;7.30;;
5871;SDS011;2962;51.312;7.378;2023-03-01T04:51:20;10.93;;;8.03;;
5871;SDS011;2962;51.312;7.378;2023-03-01T04:53:46;9.87;;;8.37;;
5871;SDS011;2962;51.312;7.378;2023-03-01T04:56:11;9.30;;;7.80;;
5871;SDS011;2962;51.312;7.378;2023-03-01T04:58:38;11.70;;;8.50;;
5871;SDS011;2962;51.312;7.378;2023-03-01T05:01:10;9.00;;;7.20;;
5871;SDS011;2962;51.312;7.378;2023-03-01T05:03:44;13.45;;;8.35;;
5871;SDS011;2962;51.312;7.378;2023-03-01T05:06:11;8.05;;;7.22;;
5871;SDS011;2962;51.312;7.378;2023-03-01T05:08:37;18.25;;;8.07;;
5871;SDS011;2962;51.312;7.378;2023-03-01T05:11:03;14.65;;;8.27;;
5871;SDS011;2962;51.312;7.378;2023-03-01T05:13:29;14.80;;;8.97;;
5871;SDS011;2962;51.312;7.378;2023-03-01T05:15:55;10.37;;;7.07;;
5871;SDS011;2962;51.312;7.378;2023-03-01T05:18:25;14.07;;;9.38;;
5871;SDS011;2962;51.312;7.378;2023-03-01T05:20:53;11.77;;;7.60;;
5871;SDS011;2962;51.312;7.378;2023-03-01T05:23:21;14.52;;;8.32;;
5871;SDS011;2962;51.312;7.378;2023-03-01T05:25:49;17.00;;;8.95;;
5871;SDS011;2962;51.312;7.378;2023-03-01T05:28:17;12.10;;;8.15;;
5871;SDS011;2962;51.312;7.378;2023-03-01T05:30:44;13.07;;;8.75;;
5871;SDS011;2962;51.312;7.378;2023-03-01T05:33:10;12.30;;;8.50;;
5871;SDS011;2962;51.312;7.378;2023-03-01T05:35:38;10.98;;;7.85;;
5871;SDS011;2962;51.312;7.378;2023-03-01T05:38:06;14.48;;;8.45;;
5871;SDS011;2962;51.312;7.378;2023-03-01T05:40:32;11.83;;;8.40;;
5871;SDS011;2962;51.312;7.378;2023-03-01T05:42:58;14.95;;;9.50;;
5871;SDS011;2962;51.312;7.378;2023-03-01T05:45:24;9.87;;;7.50;;
5871;SDS011;2962;51.312;7.378;2023-03-01T05:47:51;14.00;;;8.48;;
5871;SDS011;2962;51.312;7.378;2023-03-01T05:50:25;13.63;;;8.80;;
5871;SDS011;2962;51.312;7.378;2023-03-01T05:52:56;12.98;;;9.23;;
5871;SDS011;2962;51.312;7.378;2023-03-01T05:55:21;13.57;;;9.10;;
5871;SDS011;2962;51.312;7.378;2023-03-01T05:57:47;15.53;;;8.90;;
5871;SDS011;2962;51.312;7.378;2023-03-01T06:00:14;12.67;;;9.00;;
5871;SDS011;2962;51.312;7.378;2023-03-01T06:02:42;13.00;;;8.70;;
5871;SDS011;2962;51.312;7.378;2023-03-01T06:05:08;9.90;;;8.07;;
5871;SDS011;2962;51.312;7.378;2023-03-01T06:07:35;14.25;;;8.40;;
5871;SDS011;2962;51.312;7.378;2023-03-01T06:10:01;12.40;;;7.93;;
5871;SDS011;2962;51.312;7.378;2023-03-01T06:12:31;13.35;;;8.98;;
5871;SDS011;2962;51.312;7.378;2023-03-01T06:14:58;14.90;;;8.90;;
5871;SDS011;2962;51.312;7.378;2023-03-01T06:17:24;15.98;;;9.57;;
5871;SDS011;2962;51.312;7.378;2023-03-01T06:19:49;13.70;;;8.70;;
5871;SDS011;2962;51.312;7.378;2023-03-01T06:22:14;15.73;;;9.73;;
5871;SDS011;2962;51.312;7.378;2023-03-01T06:24:40;16.27;;;9.10;;
5871;SDS011;2962;51.312;7.378;2023-03-01T06:27:05;11.13;;;8.60;;
5871;SDS011;2962;51.312;7.378;2023-03-01T06:29:30;17.40;;;9.27;;
5871;SDS011;2962;51.312;7.378;2023-03-01T06:31:56;12.93;;;9.13;;
5871;SDS011;2962;51.312;7.378;2023-03-01T06:34:21;13.00;;;9.10;;
5871;SDS011;2962;51.312;7.378;2023-03-01T06:36:46;19.73;;;9.83;;
5871;SDS011;2962;51.312;7.378;2023-03-01T06:39:12;19.20;;;9.75;;
5871;SDS011;2962;51.312;7.378;2023-03-01T06:41:38;14.33;;;8.63;;
5871;SDS011;2962;51.312;7.378;2023-03-01T06:44:03;12.53;;;8.83;;
5871;SDS011;2962;51.312;7.378;2023-03-01T06:46:28;16.90;;;9.30;;
5871;SDS011;2962;51.312;7.378;2023-03-01T06:48:54;11.77;;;8.80;;
5871;SDS011;2962;51.312;7.378;2023-03-01T06:51:19;12.07;;;8.13;;
5871;SDS011;2962;51.312;7.378;2023-03-01T06:53:45;10.33;;;9.10;;
5871;SDS011;2962;51.312;7.378;2023-03-01T06:56:11;13.45;;;8.77;;
5871;SDS011;2962;51.312;7.378;2023-03-01T06:58:36;18.17;;;10.30;;
5871;SDS011;2962;51.312;7.378;2023-03-01T07:01:05;21.90;;;10.03;;
5871;SDS011;2962;51.312;7.378;2023-03-01T07:03:31;14.02;;;9.27;;
5871;SDS011;2962;51.312;7.378;2023-03-01T07:05:56;12.33;;;9.23;;
5871;SDS011;2962;51.312;7.378;2023-03-01T07:08:22;12.70;;;9.20;;
5871;SDS011;2962;51.312;7.378;2023-03-01T07:10:47;14.07;;;10.60;;
5871;SDS011;2962;51.312;7.378;2023-03-01T07:13:12;10.57;;;7.67;;
5871;SDS011;2962;51.312;7.378;2023-03-01T07:15:39;14.43;;;9.80;;
5871;SDS011;2962;51.312;7.378;2023-03-01T07:18:05;11.90;;;9.00;;
5871;SDS011;2962;51.312;7.378;2023-03-01T07:20:30;14.57;;;10.30;;
5871;SDS011;2962;51.312;7.378;2023-03-01T07:22:55;13.20;;;9.27;;
5871;SDS011;2962;51.312;7.378;2023-03-01T07:25:23;12.15;;;8.18;;
5871;SDS011;2962;51.312;7.378;2023-03-01T07:27:52;13.70;;;9.10;;
5871;SDS011;2962;51.312;7.378;2023-03-01T07:30:19;9.50;;;8.48;;
5871;SDS011;2962;51.312;7.378;2023-03-01T07:32:45;17.08;;;8.50;;
5871;SDS011;2962;51.312;7.378;2023-03-01T07:35:11;11.60;;;8.37;;
5871;SDS011;2962;51.312;7.378;2023-03-01T07:37:36;17.37;;;8.73;;
5871;SDS011;2962;51.312;7.378;2023-03-01T07:40:01;13.80;;;8.47;;
5871;SDS011;2962;51.312;7.378;2023-03-01T07:42:27;14.30;;;9.13;;
5871;SDS011;2962;51.312;7.378;2023-03-01T07:44:52;16.90;;;8.93;;
5871;SDS011;2962;51.312;7.378;2023-03-01T07:47:18;10.87;;;7.83;;
5871;SDS011;2962;51.312;7.378;2023-03-01T07:49:43;10.10;;;8.50;;
5871;SDS011;2962;51.312;7.378;2023-03-01T07:52:11;14.93;;;9.80;;
5871;SDS011;2962;51.312;7.378;2023-03-01T07:54:37;12.38;;;8.82;;
5871;SDS011;2962;51.312;7.378;2023-03-01T07:57:02;14.93;;;9.03;;
5871;SDS011;2962;51.312;7.378;2023-03-01T07:59:27;9.10;;;7.90;;
5871;SDS011;2962;51.312;7.378;2023-03-01T08:01:55;11.27;;;8.98;;
5871;SDS011;2962;51.312;7.378;2023-03-01T08:04:21;12.25;;;9.32;;
5871;SDS011;2962;51.312;7.378;2023-03-01T08:06:47;10.57;;;9.33;;
5871;SDS011;2962;51.312;7.378;2023-03-01T08:09:12;12.33;;;8.77;;
5871;SDS011;2962;51.312;7.378;2023-03-01T08:11:38;11.30;;;8.10;;
5871;SDS011;2962;51.312;7.378;2023-03-01T08:14:03;11.33;;;8.13;;
5871;SDS011;2962;51.312;7.378;2023-03-01T08:16:28;9.83;;;8.10;;
5871;SDS011;2962;51.312;7.378;2023-03-01T08:18:54;10.20;;;9.20;;
5871;SDS011;2962;51.312;7.378;2023-03-01T08:21:21;11.57;;;8.82;;
5871;SDS011;2962;51.312;7.378;2023-03-01T08:23:47;12.23;;;9.30;;
5871;SDS011;2962;51.312;7.378;2023-03-01T08:26:14;11.60;;;9.07;;
5871;SDS011;2962;51.312;7.378;2023-03-01T08:28:42;12.75;;;9.82;;
5871;SDS011;2962;51.312;7.378;2023-03-01T08:31:14;11.10;;;9.27;;
5871;SDS011;2962;51.312;7.378;2023-03-01T08:33:41;13.77;;;8.82;;
5871;SDS011;2962;51.312;7.378;2023-03-01T08:36:07;9.20;;;7.90;;
5871;SDS011;2962;51.312;7.378;2023-03-01T08:38:33;9.73;;;8.50;;
5871;SDS011;2962;51.312;7.378;2023-03-01T08:41:00;12.27;;;9.07;;
5871;SDS011;2962;51.312;7.378;2023-03-01T08:43:26;14.57;;;8.80;;
5871;SDS011;2962;51.312;7.378;2023-03-01T08:45:51;18.03;;;9.57;;
5871;SDS011;2962;51.312;7.378;2023-03-01T08:48:17;12.93;;;8.80;;
5871;SDS011;2962;51.312;7.378;2023-03-01T08:50:42;11.43;;;8.53;;
5871;SDS011;2962;51.312;7.378;2023-03-01T08:53:07;11.50;;;9.80;;
5871;SDS011;2962;51.312;7.378;2023-03-01T08:55:32;9.80;;;8.80;;
5871;SDS011;2962;51.312;7.378;2023-03-01T08:57:58;9.50;;;8.30;;
5871;SDS011;2962;51.312;7.378;2023-03-01T09:00:24;12.40;;;8.60;;
5871;SDS011;2962;51.312;7.378;2023-03-01T09:02:50;9.90;;;8.97;;
5871;SDS011;2962;51.312;7.378;2023-03-01T09:05:15;11.10;;;8.90;;
5871;SDS011;2962;51.312;7.378;2023-03-01T09:07:40;11.40;;;9.70;;
5871;SDS011;2962;51.312;7.378;2023-03-01T09:10:06;9.17;;;8.27;;
5871;SDS011;2962;51.312;7.378;2023-03-01T09:12:31;9.23;;;8.30;;
5871;SDS011;2962;51.312;7.378;2023-03-01T09:14:57;14.87;;;9.80;;
5871;SDS011;2962;51.312;7.378;2023-03-01T09:17:22;13.97;;;10.63;;
5871;SDS011;2962;51.312;7.378;2023-03-01T09:19:47;12.20;;;8.80;;
5871;SDS011;2962;51.312;7.378;2023-03-01T09:22:13;9.80;;;8.80;;
5871;SDS011;2962;51.312;7.378;2023-03-01T09:24:38;10.63;;;8.60;;
5871;SDS011;2962;51.312;7.378;2023-03-01T09:27:05;16.33;;;9.85;;
5871;SDS011;2962;51.312;7.378;2023-03-01T09:29:33;10.30;;;8.43;;
5871;SDS011;2962;51.312;7.378;2023-03-01T09:32:00;10.73;;;8.70;;
5871;SDS011;2962;51.312;7.378;2023-03-01T09:34:25;12.00;;;8.33;;
5871;SDS011;2962;51.312;7.378;2023-03-01T09:36:50;11.87;;;8.63;;
5871;SDS011;2962;51.312;7.378;2023-03-01T09:39:16;12.40;;;8.83;;
5871;SDS011;2962;51.312;7.378;2023-03-01T09:46:56;9.90;;;8.13;;
5871;SDS011;2962;51.312;7.378;2023-03-01T09:49:23;10.05;;;9.07;;
5871;SDS011;2962;51.312;7.378;2023-03-01T09:54:24;11.37;;;8.00;;
5871;SDS011;2962;51.312;7.378;2023-03-01T10:10:37;9.37;;;7.93;;
5871;SDS011;2962;51.312;7.378;2023-03-01T10:13:14;9.07;;;7.90;;
5871;SDS011;2962;51.312;7.378;2023-03-01T10:15:47;9.23;;;7.80;;
5871;SDS011;2962;51.312;7.378;2023-03-01T10:18:30;8.33;;;7.53;;
5871;SDS011;2962;51.312;7.378;2023-03-01T10:20:59;11.43;;;7.30;;
5871;SDS011;2962;51.312;7.378;2023-03-01T10:23:27;8.40;;;7.60;;
5871;SDS011;2962;51.312;7.378;2023-03-01T10:28:49;11.93;;;7.40;;
5871;SDS011;2962;51.312;7.378;2023-03-01T10:31:22;8.43;;;7.63;;
5871;SDS011;2962;51.312;7.378;2023-03-01T10:33:54;8.83;;;7.40;;
5871;SDS011;2962;51.312;7.378;2023-03-01T10:36:21;8.47;;;7.67;;
5871;SDS011;2962;51.312;7.378;2023-03-01T10:41:17;8.53;;;7.70;;
5871;SDS011;2962;51.312;7.378;2023-03-01T10:43:44;9.57;;;7.40;;
5871;SDS011;2962;51.312;7.378;2023-03-01T10:49:19;7.77;;;7.07;;
5871;SDS011;2962;51.312;7.378;2023-03-01T10:51:49;7.73;;;7.00;;
5871;SDS011;2962;51.312;7.378;2023-03-01T10:54:17;8.43;;;7.53;;
5871;SDS011;2962;51.312;7.378;2023-03-01T10:56:50;8.30;;;7.40;;
5871;SDS011;2962;51.312;7.378;2023-03-01T10:59:22;6.93;;;6.43;;
5871;SDS011;2962;51.312;7.378;2023-03-01T11:04:35;9.43;;;7.00;;
5871;SDS011;2962;51.312;7.378;2023-03-01T11:07:01;7.20;;;6.60;;
5871;SDS011;2962;51.312;7.378;2023-03-01T11:09:30;9.53;;;7.30;;
5871;SDS011;2962;51.312;7.378;2023-03-01T11:12:03;6.93;;;6.33;;
5871;SDS011;2962;51.312;7.378;2023-03-01T11:14:33;7.50;;;6.70;;
5871;SDS011;2962;51.312;7.378;2023-03-01T11:17:06;9.37;;;7.50;;
5871;SDS011;2962;51.312;7.378;2023-03-01T11:19:40;6.93;;;6.30;;
5871;SDS011;2962;51.312;7.378;2023-03-01T11:22:08;8.23;;;7.43;;
5871;SDS011;2962;51.312;7.378;2023-03-01T11:24:45;12.30;;;6.87;;
5871;SDS011;2962;51.312;7.378;2023-03-01T11:27:17;7.23;;;6.57;;
5871;SDS011;2962;51.312;7.378;2023-03-01T11:30:05;7.23;;;6.60;;
5871;SDS011;2962;51.312;7.378;2023-03-01T11:32:36;9.07;;;7.80;;
5871;SDS011;2962;51.312;7.378;2023-03-01T11:38:24;9.93;;;7.40;;
5871;SDS011;2962;51.312;7.378;2023-03-01T11:40:47;11.90;;;6.80;;
5871;SDS011;2962;51.312;7.378;2023-03-01T11:57:17;6.67;;;6.17;;
5871;SDS011;2962;51.312;7.378;2023-03-01T11:59:57;6.80;;;6.30;;
5871;SDS011;2962;51.312;7.378;2023-03-01T12:11:54;6.33;;;5.90;;
5871;SDS011;2962;51.312;7.378;2023-03-01T12:14:54;7.20;;;6.50;;
5871;SDS011;2962;51.312;7.378;2023-03-01T12:17:38;7.03;;;6.17;;
5871;SDS011;2962;51.312;7.378;2023-03-01T12:20:12;9.00;;;6.60;;
5871;SDS011;2962;51.312;7.378;2023-03-01T12:34:14;6.40;;;5.80;;
5871;SDS011;2962;51.312;7.378;2023-03-01T12:37:13;6.87;;;6.37;;
5871;SDS011;2962;51.312;7.378;2023-03-01T12:40:29;6.47;;;5.87;;
5871;SDS011;2962;51.312;7.378;2023-03-01T12:43:10;6.37;;;5.90;;
5871;SDS011;2962;51.312;7.378;2023-03-01T12:51:35;7.43;;;6.43;;
5871;SDS011;2962;51.312;7.378;2023-03-01T12:54:05;7.23;;;6.67;;
5871;SDS011;2962;51.312;7.378;2023-03-01T12:56:46;6.97;;;6.43;;
5871;SDS011;2962;51.312;7.378;2023-03-01T12:59:29;7.30;;;6.70;;
5871;SDS011;2962;51.312;7.378;2023-03-01T13:04:36;7.23;;;6.60;;
5871;SDS011;2962;51.312;7.378;2023-03-01T13:07:15;10.03;;;6.67;;
5871;SDS011;2962;51.312;7.378;2023-03-01T13:17:48;8.30;;;7.20;;
5871;SDS011;2962;51.312;7.378;2023-03-01T13:20:19;10.20;;;7.83;;
5871;SDS011;2962;51.312;7.378;2023-03-01T13:23:07;7.80;;;6.87;;
5871;SDS011;2962;51.312;7.378;2023-03-01T13:30:58;10.50;;;7.00;;
5871;SDS011;2962;51.312;7.378;2023-03-01T13:35:53;8.07;;;7.33;;
5871;SDS011;2962;51.312;7.378;2023-03-01T13:44:11;7.40;;;6.80;;
5871;SDS011;2962;51.312;7.378;2023-03-01T13:46:45;7.97;;;7.17;;
5871;SDS011;2962;51.312;7.378;2023-03-01T13:49:13;7.50;;;6.83;;
5871;SDS011;2962;51.312;7.378;2023-03-01T13:51:41;7.73;;;7.13;;
5871;SDS011;2962;51.312;7.378;2023-03-01T13:54:11;7.20;;;6.60;;
5871;SDS011;2962;51.312;7.378;2023-03-01T13:56:39;6.50;;;5.90;;
5871;SDS011;2962;51.312;7.378;2023-03-01T13:59:06;7.20;;;6.60;;
5871;SDS011;2962;51.312;7.378;2023-03-01T14:01:38;6.87;;;6.23;;
5871;SDS011;2962;51.312;7.378;2023-03-01T14:04:18;6.63;;;6.00;;
5871;SDS011;2962;51.312;7.378;2023-03-01T14:06:47;6.30;;;5.97;;
5871;SDS011;2962;51.312;7.378;2023-03-01T14:09:25;6.80;;;6.20;;
5871;SDS011;2962;51.312;7.378;2023-03-01T14:15:00;7.90;;;6.50;;
5871;SDS011;2962;51.312;7.378;2023-03-01T14:17:35;6.30;;;5.90;;
5871;SDS011;2962;51.312;7.378;2023-03-01T14:20:11;6.90;;;6.30;;
5871;SDS011;2962;51.312;7.378;2023-03-01T14:22:41;6.00;;;5.60;;
5871;SDS011;2962;51.312;7.378;2023-03-01T14:30:41;5.67;;;5.37;;
5871;SDS011;2962;51.312;7.378;2023-03-01T14:36:01;6.03;;;5.70;;
5871;SDS011;2962;51.312;7.378;2023-03-01T14:38:40;6.63;;;5.67;;
5871;SDS011;2962;51.312;7.378;2023-03-01T14:43:44;5.40;;;5.10;;
5871;SDS011;2962;51.312;7.378;2023-03-01T14:46:19;6.43;;;5.93;;
5871;SDS011;2962;51.312;7.378;2023-03-01T14:48:51;6.83;;;6.00;;
5871;SDS011;2962;51.312;7.378;2023-03-01T14:51:21;7.83;;;6.70;;
5871;SDS011;2962;51.312;7.378;2023-03-01T14:53:47;6.83;;;6.33;;
5871;SDS011;2962;51.312;7.378;2023-03-01T14:56:13;5.90;;;5.60;;
5871;SDS011;2962;51.312;7.378;2023-03-01T14:58:42;6.60;;;6.10;;
5871;SDS011;2962;51.312;7.378;2023-03-01T15:01:10;6.97;;;6.30;;
5871;SDS011;2962;51.312;7.378;2023-03-01T15:03:46;9.80;;;7.03;;
5871;SDS011;2962;51.312;7.378;2023-03-01T15:06:20;6.40;;;5.90;;
5871;SDS011;2962;51.312;7.378;2023-03-01T15:08:49;7.13;;;6.63;;
5871;SDS011;2962;51.312;7.378;2023-03-01T15:13:52;6.77;;;6.00;;
5871;SDS011;2962;51.312;7.378;2023-03-01T15:16:18;8.30;;;6.43;;
5871;SDS011;2962;51.312;7.378;2023-03-01T15:18:51;6.30;;;6.00;;
5871;SDS011;2962;51.312;7.378;2023-03-01T15:21:26;6.60;;;5.83;;
5871;SDS011;2962;51.312;7.378;2023-03-01T15:24:05;6.00;;;5.60;;
5871;SDS011;2962;51.312;7.378;2023-03-01T15:26:47;11.53;;;6.40;;
5871;SDS011;2962;51.312;7.378;2023-03-01T15:29:20;6.90;;;6.33;;
5871;SDS011;2962;51.312;7.378;2023-03-01T15:31:58;6.40;;;5.90;;
5871;SDS011;2962;51.312;7.378;2023-03-01T15:34:37;6.50;;;6.10;;
5871;SDS011;2962;51.312;7.378;2023-03-01T15:37:04;6.57;;;5.97;;
5871;SDS011;2962;51.312;7.378;2023-03-01T15:39:33;6.03;;;5.50;;
5871;SDS011;2962;51.312;7.378;2023-03-01T15:42:03;6.30;;;5.70;;
5871;SDS011;2962;51.312;7.378;2023-03-01T15:44:37;6.73;;;6.20;;
5871;SDS011;2962;51.312;7.378;2023-03-01T15:47:06;10.87;;;6.37;;
5871;SDS011;2962;51.312;7.378;2023-03-01T15:49:47;7.10;;;6.70;;
5871;SDS011;2962;51.312;7.378;2023-03-01T15:52:13;6.77;;;6.10;;
5871;SDS011;2962;51.312;7.378;2023-03-01T15:54:58;5.43;;;5.13;;
5871;SDS011;2962;51.312;7.378;2023-03-01T15:57:25;6.37;;;5.87;;
5871;SDS011;2962;51.312;7.378;2023-03-01T15:59:50;6.53;;;6.13;;
5871;SDS011;2962;51.312;7.378;2023-03-01T16:02:16;5.63;;;5.30;;
5871;SDS011;2962;51.312;7.378;2023-03-01T16:04:41;7.27;;;6.77;;
5871;SDS011;2962;51.312;7.378;2023-03-01T16:07:08;6.23;;;5.80;;
5871;SDS011;2962;51.312;7.378;2023-03-01T16:09:34;5.60;;;5.30;;
5871;SDS011;2962;51.312;7.378;2023-03-01T16:12:00;5.90;;;5.50;;
5871;SDS011;2962;51.312;7.378;2023-03-01T16:14:26;6.30;;;5.70;;
5871;SDS011;2962;51.312;7.378;2023-03-01T16:16:51;8.43;;;6.10;;
5871;SDS011;2962;51.312;7.378;2023-03-01T16:19:17;6.07;;;5.67;;
5871;SDS011;2962;51.312;7.378;2023-03-01T16:21:42;6.83;;;6.17;;
5871;SDS011;2962;51.312;7.378;2023-03-01T16:24:11;6.07;;;5.53;;
5871;SDS011;2962;51.312;7.378;2023-03-01T16:26:37;6.50;;;6.10;;
5871;SDS011;2962;51.312;7.378;2023-03-01T16:29:02;6.00;;;5.60;;
5871;SDS011;2962;51.312;7.378;2023-03-01T16:31:28;5.90;;;5.50;;
5871;SDS011;2962;51.312;7.378;2023-03-01T16:33:57;5.67;;;5.27;;
5871;SDS011;2962;51.312;7.378;2023-03-01T16:36:24;5.83;;;5.53;;
5871;SDS011;2962;51.312;7.378;2023-03-01T16:38:51;6.23;;;5.70;;
5871;SDS011;2962;51.312;7.378;2023-03-01T16:41:18;7.60;;;5.80;;
5871;SDS011;2962;51.312;7.378;2023-03-01T16:43:45;7.63;;;6.40;;
5871;SDS011;2962;51.312;7.378;2023-03-01T16:46:15;5.37;;;5.07;;
5871;SDS011;2962;51.312;7.378;2023-03-01T16:48:44;6.33;;;5.73;;
5871;SDS011;2962;51.312;7.378;2023-03-01T16:51:10;7.87;;;6.60;;
5871;SDS011;2962;51.312;7.378;2023-03-01T16:53:36;7.03;;;6.50;;
5871;SDS011;2962;51.312;7.378;2023-03-01T16:56:03;6.43;;;5.93;;
5871;SDS011;2962;51.312;7.378;2023-03-01T16:58:30;6.00;;;5.50;;
5871;SDS011;2962;51.312;7.378;2023-03-01T17:00:56;5.77;;;5.30;;
5871;SDS011;2962;51.312;7.378;2023-03-01T17:03:22;5.57;;;5.07;;
5871;SDS011;2962;51.312;7.378;2023-03-01T17:05:50;9.37;;;5.20;;
5871;SDS011;2962;51.312;7.378;2023-03-01T17:08:16;6.73;;;4.87;;
5871;SDS011;2962;51.312;7.378;2023-03-01T17:10:41;7.43;;;5.80;;
5871;SDS011;2962;51.312;7.378;2023-03-01T17:13:07;5.60;;;5.10;;
5871;SDS011;2962;51.312;7.378;2023-03-01T17:15:34;7.15;;;4.78;;
5871;SDS011;2962;51.312;7.378;2023-03-01T17:17:59;7.50;;;5.77;;
5871;SDS011;2962;51.312;7.378;2023-03-01T17:20:25;6.97;;;5.60;;
5871;SDS011;2962;51.312;7.378;2023-03-01T17:22:50;5.63;;;5.07;;
5871;SDS011;2962;51.312;7.378;2023-03-01T17:25:17;5.53;;;5.13;;
5871;SDS011;2962;51.312;7.378;2023-03-01T17:27:42;6.97;;;5.00;;
5871;SDS011;2962;51.312;7.378;2023-03-01T17:30:08;6.60;;;5.33;;
5871;SDS011;2962;51.312;7.378;2023-03-01T17:32:35;7.93;;;5.40;;